メインページ
METAR-TAF:

METAR-TAF

空港 :

ジュネーヴ空港

ジュネーヴ, スイス

緯度: 46-15N, 経度: 006-08E, 海抜: 420m

現時点の気象観測

当レポートは38分前の23:50(UTC)に作成
の風 2kt
気温 11°C
湿度 87%
気圧 1026 hPa
視程10km以上
高度1500ftの千切れ雲あり

METAR: LSGG 142350Z AUTO 01002KT 9999 BKN015 11/09 Q1026 NOSIG

時間: 01:28 (00:28 UTC)

予報

当レポートは1時間3分前の23:25(UTC)に作成
予報は15日の 00時(UTC)から 16日の 06時(UTC)まで有効
北東の風 3kt
視程10km以上
高度1500ftの曇り
15日の 00時(UTC)から 15日の 08時(UTC)まで一時的に
視程: 2000m
高度1000ftの曇り
確率 30% :
15日の 11時(UTC)から 15日の 18時(UTC)まで一時的に
高度1000ftの雲はほとんどない
高度2000ftの雲は散在している
15日の 18時(UTC)から 15日の 22時(UTC)まで徐々に
視程: 3500m
高度1000ftの曇り
確率 40% :
16日の 00時(UTC)から 16日の 06時(UTC)まで一時的に
視程: 0800m
高度300ftの

TAF: LSGG 142325Z 1500/1606 05003KT 9999 OVC015 TX12/1515Z TN08/1506Z TN05/1606Z TEMPO 1500/1508 2000 BR OVC010 PROB30 TEMPO 1511/1518 FEW010 SCT020 BECMG 1518/1522 3500 BR OVC010 PROB40 TEMPO 1600/1606 0800 FG VV003

4,000以上の空港の気象観測と天気予報(METAR報とTAF報)

利用可能な観測所は地図上に黄色い丸と赤い丸で示す。

丸の上にカーソルを重ねると観測所名を参照できる。

次にクリックすると気象観測と天気予報を参照できる。

マップの切り替え:黒色「×」印の緑ボタンをクリックして拡大、「-」印の緑ボタンをクリックして縮小、緑色の三角印をクリックして隣りの地図に切り替え


METAR-TAF: